Soaring Guidance
Issued by NWS Reno, NV

Home | Current Version | Previous Version | Text Only | Print | Product List | Glossary On
Versions: 1 2 3 4 5 6 7 8 9 10 11 12 13 14 15 16
000
UXUS97 KREV 191450
SRGREV

SOARING FORECAST
NATIONAL WEATHER SERVICE - RENO NV
700 AM PST THU JAN 19 2017

THIS SOARING FORECAST IS FOR THE EASTERN SIERRA AND WESTERN NEVADA
WITH SPECIFIC INDICES FOR THE GREATER RENO AREA.

THIS FORECAST IS PREPARED DAILY BY 700 AM AND IS NOT UPDATED.

FOR CURRENT FLIGHT CONDITIONS...FORECASTS...AND ADVISORIES...ACCESS
YOUR LOCAL BRIEFING OUTLET OR FLIGHT SERVICE STATION.

*******************************************************************
FORECASTED LOCAL INDICES FOR RENO:        TODAY     YESTERDAY
FORECASTED MAX TEMP AT RENO (DEG F).....     41          47
FORECASTED TRIGGER TEMPERATURE (DEG F)..     44          59
   EXCEEDED YESTERDAY BY
FORECASTED MAXIMUM ALTITUDE (FT MSL)....   7900        6600
FORECASTED SOARING INDEX (FPM)..........    237         138
FORECASTED K-INDEX.........VALID 18Z....     28          12
FORECASTED K-INDEX.........VALID 00Z....     23          17
FORECASTED LIFTED INDEX....VALID 18Z....      0           3
FORECASTED LIFTED INDEX....VALID 00Z....      2           4

AFTERNOON WINDS ALOFT FORECAST
MSL (FT) WIND/TEMP
9000  2523/-08
10000 2523/-10
12000 2623/-14
14000 2724/-18
16000 2825/-22
18000 2928/-27
24000 3175/-34
30000 3160/-45
34000 3044/-43
39000 2944/-44

SLIDE MOUNTAIN DATA:
     DATE       TIME     TEMP  DEWPT   RH         WIND (MPH)
                        (F)   (F)           | DIR  SPEED GUST
2017-01-19    05:50      17    16     94    | 305   20   28
2017-01-19    05:30      17    16     94    | 305   17   21
2017-01-19    05:20      18    17     94    | 305   16   24
2017-01-19    05:00      18    17     94    | 305   14   21

RENO TAF FORECAST:
KRNO 191129Z 1912/2012 32009KT P6SM VCSH SCT040 BKN080
      WS020/24045KT
      TEMPO 1912/1915 5SM -SHSN SCT020 BKN040
     FM191600 18011KT P6SM VCSH FEW050 BKN090 WS020/24045KT
     FM192300 24011KT P6SM SCT090 BKN150
     FM200800 19012G20KT P6SM VCSH SCT050 OVC080

CARSON CITY TAF FORECAST:
KCXP 191129Z 1912/2012 21011KT P6SM VCSH SCT040 BKN100
      WS020/24045KT
      TEMPO 1912/1916 5SM -SHSN SCT020 BKN045
     FM191700 20009KT P6SM VCSH FEW040 BKN090 WS020/24045KT
     FM192300 22011KT P6SM SCT060 BKN140
     FM200900 17011G20KT P6SM VCSH SCT040 OVC080

OUTLOOK FOR THE RENO-CARSON CITY-MINDEN AREA:
.FRIDAY...SNOW IN THE MORNING, THEN SNOW AND RAIN LIKELY IN THE
AFTERNOON. SNOW ACCUMULATION OF 1 TO 3 INCHES...WITH 2 TO
5 INCHES ABOVE 5000 FEET. HIGHS 35 TO 40. SOUTH WINDS 10 TO
15 MPH WITH GUSTS UP TO 40 MPH.

SUNRISE AND SUNSET
JANUARY 19 2017.......SUNRISE   716 AM PST   SUNSET   505 PM PST
JANUARY 20 2017.......SUNRISE   715 AM PST   SUNSET   506 PM PST


USA.gov is the U.S. government's official web portal to all federal, state and local government web resources and services.